Time,TemperatureF,DewpointF,PressureIn,WindDirection,WindDirectionDegrees,WindSpeedMPH,WindSpeedGustMPH,Humidity,HourlyPrecipIn,Conditions,Clouds,dailyrainin,SoftwareType,DateUTC
2013-02-17 00:01:00,36.0,-2.0,30.00,South,188,5.0,7.0,19,-99.99,,,-99.99,,2013-02-17 07:01:00,
2013-02-17 00:11:00,36.0,-2.0,-100.00,South,188,5.0,7.0,19,-99.99,,,-99.99,,2013-02-17 07:11:00,
2013-02-17 00:21:00,36.0,-2.0,29.99,South,185,5.0,8.0,19,-99.99,,,-99.99,,2013-02-17 07:21:00,
2013-02-17 00:31:00,36.0,-2.0,29.99,South,178,4.0,7.0,19,-99.99,,,-99.99,,2013-02-17 07:31:00,
2013-02-17 00:41:00,36.0,-2.0,29.99,South,178,4.0,7.0,19,-99.99,,,-99.99,,2013-02-17 07:41:00,
2013-02-17 00:52:00,36.0,0.0,29.97,South,170,4.0,9.0,21,-99.99,,,-99.99,,2013-02-17 07:52:00,
2013-02-17 01:01:00,36.0,0.0,29.97,SSE,166,4.0,10.0,21,-99.99,,,-99.99,,2013-02-17 08:01:00,
2013-02-17 01:11:00,36.0,0.0,-100.00,SSE,166,4.0,10.0,21,-99.99,,,-99.99,,2013-02-17 08:11:00,
2013-02-17 01:21:00,37.0,2.0,29.96,SSE,151,5.0,10.0,22,-99.99,,,-99.99,,2013-02-17 08:21:00,
2013-02-17 01:31:00,38.0,4.0,29.95,SSE,151,6.0,13.0,23,-99.99,,,-99.99,,2013-02-17 08:31:00,
2013-02-17 01:42:00,38.0,4.0,29.95,SSE,151,6.0,13.0,23,-99.99,,,-99.99,,2013-02-17 08:42:00,
2013-02-17 01:52:00,39.0,6.0,29.95,SSE,157,5.0,12.0,25,-99.99,,,-99.99,,2013-02-17 08:52:00,
2013-02-17 02:01:00,39.0,7.0,29.94,SSE,157,5.0,11.0,26,-99.99,,,-99.99,,2013-02-17 09:01:00,
2013-02-17 02:21:00,38.0,7.0,29.92,SSE,161,5.0,10.0,27,-99.99,,,-99.99,,2013-02-17 09:21:00,
2013-02-17 02:31:00,38.0,7.0,29.92,SSE,158,5.0,9.0,27,-99.99,,,-99.99,,2013-02-17 09:31:00,
2013-02-17 02:41:00,38.0,7.0,29.92,SSE,158,5.0,9.0,27,-99.99,,,-99.99,,2013-02-17 09:41:00,
2013-02-17 02:52:00,39.0,7.0,29.91,SSE,159,4.0,8.0,26,-99.99,,,-99.99,,2013-02-17 09:52:00,
2013-02-17 03:01:00,39.0,6.0,29.91,SSE,163,4.0,7.0,25,-99.99,,,-99.99,,2013-02-17 10:01:00,
2013-02-17 03:21:00,37.0,7.0,29.90,ENE,65,1.0,5.0,28,-99.99,,,-99.99,,2013-02-17 10:21:00,
2013-02-17 03:31:00,30.0,8.0,29.90,SW,229,0.0,4.0,39,-99.99,,,-99.99,,2013-02-17 10:31:00,
2013-02-17 03:41:00,30.0,8.0,29.90,SW,229,0.0,4.0,39,-99.99,,,-99.99,,2013-02-17 10:41:00,
2013-02-17 03:52:00,33.0,7.0,29.89,South,174,0.0,6.0,33,-99.99,,,-99.99,,2013-02-17 10:52:00,
2013-02-17 04:01:00,37.0,6.0,29.87,SSE,147,1.0,5.0,27,-99.99,,,-99.99,,2013-02-17 11:01:00,
2013-02-17 04:11:00,37.0,6.0,-100.00,SSE,147,1.0,5.0,27,-99.99,,,-99.99,,2013-02-17 11:11:00,
2013-02-17 04:21:00,37.0,6.0,29.87,SSE,163,3.0,8.0,27,-99.99,,,-99.99,,2013-02-17 11:21:00,
2013-02-17 04:32:00,38.0,7.0,29.87,South,172,3.0,9.0,27,-99.99,,,-99.99,,2013-02-17 11:32:00,
2013-02-17 04:41:00,38.0,7.0,29.87,South,172,3.0,9.0,27,-99.99,,,-99.99,,2013-02-17 11:41:00,
2013-02-17 04:52:00,37.0,6.0,29.87,SSE,162,2.0,7.0,27,-99.99,,,-99.99,,2013-02-17 11:52:00,
2013-02-17 05:02:00,37.0,8.0,29.86,South,173,3.0,10.0,29,-99.99,,,-99.99,,2013-02-17 12:02:00,
2013-02-17 05:11:00,37.0,8.0,-100.00,South,173,3.0,10.0,29,-99.99,,,-99.99,,2013-02-17 12:11:00,
2013-02-17 05:22:00,37.0,8.0,29.85,South,173,2.0,6.0,29,-99.99,,,-99.99,,2013-02-17 12:22:00,
2013-02-17 05:31:00,38.0,6.0,29.85,SSE,163,4.0,10.0,26,-99.99,,,-99.99,,2013-02-17 12:31:00,
2013-02-17 05:42:00,38.0,6.0,29.85,SSE,163,4.0,10.0,26,-99.99,,,-99.99,,2013-02-17 12:42:00,
2013-02-17 05:52:00,38.0,8.0,29.84,SSE,166,6.0,13.0,28,-99.99,,,-99.99,,2013-02-17 12:52:00,
2013-02-17 06:02:00,38.0,7.0,29.83,SSE,167,4.0,8.0,27,-99.99,,,-99.99,,2013-02-17 13:02:00,
2013-02-17 06:11:00,38.0,7.0,-100.00,SSE,167,4.0,8.0,27,-99.99,,,-99.99,,2013-02-17 13:11:00,
2013-02-17 06:21:00,38.0,6.0,29.83,SSE,158,5.0,8.0,26,-99.99,,,-99.99,,2013-02-17 13:21:00,
2013-02-17 06:32:00,38.0,6.0,-100.00,SSE,158,5.0,8.0,26,-99.99,,,-99.99,,2013-02-17 13:32:00,
2013-02-17 06:41:00,38.0,6.0,-100.00,SSE,158,5.0,8.0,26,-99.99,,,-99.99,,2013-02-17 13:41:00,
2013-02-17 06:52:00,38.0,7.0,29.81,SSE,167,5.0,8.0,27,-99.99,,,-99.99,,2013-02-17 13:52:00,
2013-02-17 07:01:00,37.0,8.0,29.81,SSE,166,6.0,11.0,29,-99.99,,,-99.99,,2013-02-17 14:01:00,
2013-02-17 07:11:00,37.0,8.0,-100.00,SSE,166,6.0,11.0,29,-99.99,,,-99.99,,2013-02-17 14:11:00,
2013-02-17 07:21:00,36.0,7.0,-100.00,SSE,167,6.0,13.0,29,-99.99,,,-99.99,,2013-02-17 14:21:00,
2013-02-17 07:32:00,37.0,7.0,29.80,SSE,165,6.0,12.0,28,-99.99,,,-99.99,,2013-02-17 14:32:00,
2013-02-17 07:42:00,37.0,7.0,29.80,SSE,165,6.0,12.0,28,-99.99,,,-99.99,,2013-02-17 14:42:00,
2013-02-17 07:53:00,37.0,7.0,29.80,SSE,159,5.0,9.0,28,-99.99,,,-99.99,,2013-02-17 14:53:00,
2013-02-17 08:01:00,37.0,7.0,29.80,SSE,151,3.0,9.0,28,-99.99,,,-99.99,,2013-02-17 15:01:00,
2013-02-17 08:11:00,37.0,7.0,-100.00,SSE,151,3.0,9.0,28,-99.99,,,-99.99,,2013-02-17 15:11:00,
2013-02-17 08:21:00,37.0,7.0,29.80,SSE,159,3.0,6.0,28,-99.99,,,-99.99,,2013-02-17 15:21:00,
2013-02-17 08:31:00,37.0,7.0,29.79,SSE,160,2.0,6.0,28,-99.99,,,-99.99,,2013-02-17 15:31:00,
2013-02-17 08:41:00,37.0,7.0,29.79,SSE,160,2.0,6.0,28,-99.99,,,-99.99,,2013-02-17 15:41:00,
2013-02-17 08:52:00,37.0,8.0,29.80,ESE,120,1.0,9.0,29,-99.99,,,-99.99,,2013-02-17 15:52:00,
2013-02-17 09:01:00,37.0,8.0,29.79,ENE,71,2.0,10.0,30,-99.99,,,-99.99,,2013-02-17 16:01:00,
2013-02-17 09:11:00,37.0,8.0,-100.00,ENE,71,2.0,10.0,30,-99.99,,,-99.99,,2013-02-17 16:11:00,
2013-02-17 09:21:00,32.0,11.0,29.80,North,1,3.0,10.0,41,-99.99,,,-99.99,,2013-02-17 16:21:00,
2013-02-17 09:31:00,27.0,15.0,29.81,NNW,345,3.0,9.0,59,-99.99,,,-99.99,,2013-02-17 16:31:00,
2013-02-17 09:41:00,27.0,15.0,29.81,NNW,345,3.0,9.0,59,-99.99,,,-99.99,,2013-02-17 16:41:00,
2013-02-17 09:52:00,26.0,15.0,29.81,SSW,204,1.0,3.0,63,-99.99,,,-99.99,,2013-02-17 16:52:00,
2013-02-17 10:02:00,27.0,15.0,29.81,North,354,0.0,2.0,61,-99.99,,,-99.99,,2013-02-17 17:02:00,
2013-02-17 10:11:00,27.0,15.0,-100.00,North,354,0.0,2.0,61,-99.99,,,-99.99,,2013-02-17 17:11:00,
2013-02-17 10:21:00,28.0,16.0,29.81,SSW,200,1.0,3.0,60,-99.99,,,-99.99,,2013-02-17 17:21:00,
2013-02-17 10:31:00,29.0,16.0,29.80,South,172,1.0,3.0,57,-99.99,,,-99.99,,2013-02-17 17:31:00,
2013-02-17 10:41:00,29.0,16.0,29.80,South,172,1.0,3.0,57,-99.99,,,-99.99,,2013-02-17 17:41:00,
2013-02-17 10:52:00,30.0,15.0,29.80,NNE,28,2.0,4.0,54,-99.99,,,-99.99,,2013-02-17 17:52:00,
2013-02-17 11:01:00,31.0,15.0,29.80,NNE,12,3.0,11.0,51,-99.99,,,-99.99,,2013-02-17 18:01:00,
2013-02-17 11:11:00,31.0,15.0,-100.00,NNE,12,3.0,11.0,51,-99.99,,,-99.99,,2013-02-17 18:11:00,
2013-02-17 11:21:00,32.0,15.0,29.80,NNE,13,7.0,13.0,49,-99.99,,,-99.99,,2013-02-17 18:21:00,
2013-02-17 11:33:00,32.0,15.0,29.80,NNE,14,8.0,17.0,50,-99.99,,,-99.99,,2013-02-17 18:33:00,
2013-02-17 11:42:00,32.0,15.0,29.80,NNE,14,8.0,17.0,50,-99.99,,,-99.99,,2013-02-17 18:42:00,
2013-02-17 11:52:00,33.0,18.0,29.80,NNE,15,11.0,23.0,53,-99.99,,,-99.99,,2013-02-17 18:52:00,
2013-02-17 12:01:00,31.0,20.0,29.80,NNE,13,18.0,26.0,62,-99.99,,,-99.99,,2013-02-17 19:01:00,
2013-02-17 12:11:00,31.0,20.0,-100.00,NNE,13,18.0,26.0,62,-99.99,,,-99.99,,2013-02-17 19:11:00,
2013-02-17 12:21:00,31.0,20.0,29.80,NNE,16,17.0,28.0,64,-99.99,,,-99.99,,2013-02-17 19:21:00,
2013-02-17 12:32:00,29.0,20.0,29.80,NNE,17,18.0,28.0,68,-99.99,,,-99.99,,2013-02-17 19:32:00,
2013-02-17 12:41:00,29.0,20.0,29.80,NNE,17,18.0,28.0,68,-99.99,,,-99.99,,2013-02-17 19:41:00,
2013-02-17 12:52:00,29.0,20.0,29.80,NNE,12,15.0,27.0,70,-99.99,,,-99.99,,2013-02-17 19:52:00,
2013-02-17 13:01:00,29.0,20.0,29.80,North,11,13.0,21.0,70,-99.99,,,-99.99,,2013-02-17 20:01:00,
2013-02-17 13:11:00,29.0,20.0,-100.00,North,11,13.0,21.0,70,-99.99,,,-99.99,,2013-02-17 20:11:00,
2013-02-17 13:21:00,28.0,21.0,29.80,North,11,13.0,23.0,74,-99.99,,,-99.99,,2013-02-17 20:21:00,
2013-02-17 13:31:00,27.0,20.0,29.79,North,1,10.0,23.0,73,-99.99,,,-99.99,,2013-02-17 20:31:00,
2013-02-17 13:42:00,27.0,20.0,29.79,North,1,10.0,23.0,73,-99.99,,,-99.99,,2013-02-17 20:42:00,
2013-02-17 13:52:00,28.0,18.0,29.79,NNE,17,9.0,19.0,65,-99.99,,,-99.99,,2013-02-17 20:52:00,
2013-02-17 14:01:00,28.0,15.0,29.78,NNE,27,14.0,30.0,58,-99.99,,,-99.99,,2013-02-17 21:01:00,
2013-02-17 14:11:00,28.0,15.0,-100.00,NNE,27,14.0,30.0,58,-99.99,,,-99.99,,2013-02-17 21:11:00,
2013-02-17 14:21:00,28.0,15.0,29.78,NNE,19,14.0,38.0,57,-99.99,,,-99.99,,2013-02-17 21:21:00,
2013-02-17 14:31:00,28.0,14.0,29.78,NNE,19,16.0,33.0,54,-99.99,,,-99.99,,2013-02-17 21:31:00,
2013-02-17 14:41:00,28.0,14.0,29.78,NNE,19,16.0,33.0,54,-99.99,,,-99.99,,2013-02-17 21:41:00,
2013-02-17 14:53:00,28.0,12.0,29.78,NNE,15,12.0,31.0,51,-99.99,,,-99.99,,2013-02-17 21:53:00,
2013-02-17 15:01:00,28.0,10.0,29.78,NNE,14,12.0,25.0,47,-99.99,,,-99.99,,2013-02-17 22:01:00,
2013-02-17 15:11:00,28.0,10.0,-100.00,NNE,14,12.0,25.0,47,-99.99,,,-99.99,,2013-02-17 22:11:00,
2013-02-17 15:21:00,28.0,7.0,29.79,NNE,16,7.0,22.0,40,-99.99,,,-99.99,,2013-02-17 22:21:00,
2013-02-17 15:32:00,28.0,5.0,29.78,NNE,14,10.0,19.0,36,-99.99,,,-99.99,,2013-02-17 22:32:00,
2013-02-17 15:41:00,28.0,5.0,29.78,NNE,14,10.0,19.0,36,-99.99,,,-99.99,,2013-02-17 22:41:00,
2013-02-17 15:52:00,28.0,4.0,29.78,North,4,6.0,21.0,35,-99.99,,,-99.99,,2013-02-17 22:52:00,
2013-02-17 16:01:00,28.0,3.0,29.79,North,10,10.0,31.0,34,-99.99,,,-99.99,,2013-02-17 23:01:00,
2013-02-17 16:11:00,28.0,3.0,-100.00,North,10,10.0,31.0,34,-99.99,,,-99.99,,2013-02-17 23:11:00,
2013-02-17 16:21:00,27.0,4.0,29.79,North,1,11.0,21.0,36,-99.99,,,-99.99,,2013-02-17 23:21:00,
2013-02-17 16:31:00,27.0,2.0,29.79,North,9,12.0,28.0,33,-99.99,,,-99.99,,2013-02-17 23:31:00,
2013-02-17 16:42:00,27.0,2.0,29.79,North,9,12.0,28.0,33,-99.99,,,-99.99,,2013-02-17 23:42:00,
2013-02-17 16:52:00,25.0,11.0,29.80,North,3,14.0,21.0,55,-99.99,,,-99.99,,2013-02-17 23:52:00,
2013-02-17 17:01:00,22.0,15.0,29.80,North,8,14.0,23.0,74,-99.99,,,-99.99,,2013-02-18 00:01:00,
2013-02-17 17:11:00,22.0,15.0,-100.00,North,8,14.0,23.0,74,-99.99,,,-99.99,,2013-02-18 00:11:00,
2013-02-17 17:22:00,22.0,10.0,29.81,NNE,13,13.0,21.0,60,-99.99,,,-99.99,,2013-02-18 00:22:00,
2013-02-17 17:31:00,21.0,7.0,29.83,NNE,13,14.0,23.0,55,-99.99,,,-99.99,,2013-02-18 00:31:00,
2013-02-17 17:41:00,21.0,7.0,29.83,NNE,13,14.0,23.0,55,-99.99,,,-99.99,,2013-02-18 00:41:00,
2013-02-17 17:52:00,20.0,9.0,29.84,NNE,14,13.0,21.0,63,-99.99,,,-99.99,,2013-02-18 00:52:00,
2013-02-17 18:01:00,20.0,11.0,29.85,NNE,14,9.0,17.0,69,-99.99,,,-99.99,,2013-02-18 01:01:00,
2013-02-17 18:11:00,20.0,11.0,29.85,NNE,14,9.0,17.0,69,-99.99,,,-99.99,,2013-02-18 01:11:00,
2013-02-17 18:21:00,19.0,12.0,29.85,NNE,16,8.0,14.0,74,-99.99,,,-99.99,,2013-02-18 01:21:00,
2013-02-17 18:31:00,19.0,12.0,-100.00,NNE,16,8.0,14.0,74,-99.99,,,-99.99,,2013-02-18 01:31:00,
2013-02-17 18:41:00,19.0,12.0,-100.00,NNE,16,8.0,14.0,74,-99.99,,,-99.99,,2013-02-18 01:41:00,
2013-02-17 18:52:00,19.0,13.0,29.86,NNE,13,7.0,15.0,76,-99.99,,,-99.99,,2013-02-18 01:52:00,
2013-02-17 19:01:00,19.0,14.0,29.87,North,11,7.0,13.0,80,-99.99,,,-99.99,,2013-02-18 02:01:00,
2013-02-17 19:11:00,19.0,14.0,29.87,North,11,7.0,13.0,80,-99.99,,,-99.99,,2013-02-18 02:11:00,
2013-02-17 19:21:00,18.0,13.0,29.87,NNE,13,6.0,12.0,81,-99.99,,,-99.99,,2013-02-18 02:21:00,
2013-02-17 19:32:00,18.0,12.0,29.87,NNE,15,5.0,12.0,78,-99.99,,,-99.99,,2013-02-18 02:32:00,
2013-02-17 19:41:00,18.0,12.0,29.87,NNE,15,5.0,12.0,78,-99.99,,,-99.99,,2013-02-18 02:41:00,
2013-02-17 19:52:00,18.0,12.0,29.87,NNE,21,5.0,9.0,78,-99.99,,,-99.99,,2013-02-18 02:52:00,
2013-02-17 20:01:00,18.0,12.0,29.87,NNE,17,4.0,9.0,76,-99.99,,,-99.99,,2013-02-18 03:01:00,
2013-02-17 20:11:00,18.0,12.0,-100.00,NNE,17,4.0,9.0,76,-99.99,,,-99.99,,2013-02-18 03:11:00,
2013-02-17 20:21:00,18.0,11.0,29.87,NNE,12,4.0,8.0,75,-99.99,,,-99.99,,2013-02-18 03:21:00,
2013-02-17 20:31:00,17.0,10.0,29.89,NNE,19,3.0,9.0,74,-99.99,,,-99.99,,2013-02-18 03:31:00,
2013-02-17 20:42:00,17.0,10.0,29.89,NNE,19,3.0,9.0,74,-99.99,,,-99.99,,2013-02-18 03:42:00,
2013-02-17 20:52:00,17.0,10.0,29.89,NNE,20,5.0,11.0,74,-99.99,,,-99.99,,2013-02-18 03:52:00,
2013-02-17 21:01:00,17.0,10.0,29.89,NNE,22,7.0,12.0,74,-99.99,,,-99.99,,2013-02-18 04:01:00,
2013-02-17 21:11:00,17.0,10.0,-100.00,NNE,22,7.0,12.0,74,-99.99,,,-99.99,,2013-02-18 04:11:00,
2013-02-17 21:21:00,18.0,11.0,29.89,North,4,4.0,10.0,74,-99.99,,,-99.99,,2013-02-18 04:21:00,
2013-02-17 21:32:00,17.0,10.0,29.90,NNE,20,6.0,13.0,73,-99.99,,,-99.99,,2013-02-18 04:32:00,
2013-02-17 21:41:00,17.0,10.0,29.90,NNE,20,6.0,13.0,73,-99.99,,,-99.99,,2013-02-18 04:41:00,
2013-02-17 21:52:00,17.0,10.0,29.90,North,358,3.0,10.0,74,-99.99,,,-99.99,,2013-02-18 04:52:00,
2013-02-17 22:01:00,16.0,11.0,29.90,NNE,23,1.0,4.0,80,-99.99,,,-99.99,,2013-02-18 05:01:00,
2013-02-17 22:11:00,16.0,11.0,-100.00,NNE,23,1.0,4.0,80,-99.99,,,-99.99,,2013-02-18 05:11:00,
2013-02-17 22:21:00,16.0,11.0,29.91,NE,48,0.0,3.0,80,-99.99,,,-99.99,,2013-02-18 05:21:00,
2013-02-17 22:31:00,15.0,10.0,29.91,SSE,158,0.0,3.0,79,-99.99,,,-99.99,,2013-02-18 05:31:00,
2013-02-17 22:41:00,15.0,10.0,29.91,SSE,158,0.0,3.0,79,-99.99,,,-99.99,,2013-02-18 05:41:00,
2013-02-17 22:52:00,16.0,8.0,29.91,ESE,110,0.0,3.0,71,-99.99,,,-99.99,,2013-02-18 05:52:00,
2013-02-17 23:02:00,16.0,7.0,29.91,South,172,0.0,4.0,68,-99.99,,,-99.99,,2013-02-18 06:02:00,
2013-02-17 23:11:00,16.0,7.0,-100.00,South,172,0.0,4.0,68,-99.99,,,-99.99,,2013-02-18 06:11:00,
2013-02-17 23:21:00,16.0,7.0,29.91,South,190,0.0,3.0,66,-99.99,,,-99.99,,2013-02-18 06:21:00,
2013-02-17 23:31:00,16.0,7.0,-100.00,South,190,0.0,3.0,66,-99.99,,,-99.99,,2013-02-18 06:31:00,
2013-02-17 23:41:00,16.0,7.0,-100.00,South,190,0.0,3.0,66,-99.99,,,-99.99,,2013-02-18 06:41:00,
2013-02-17 23:52:00,17.0,7.0,29.92,ENE,76,1.0,5.0,65,-99.99,,,-99.99,,2013-02-18 06:52:00,